Time;durP1;ratioP1;P1;durP2;ratioP2;P2;SDS_P1;SDS_P2;PMS_P1;PMS_P2;Temp;Humidity;BMP_temperature;BMP_pressure;BME280_temperature;BME280_humidity;BME280_pressure;Samples;Min_cycle;Max_cycle;Signal;HPM_P1;HPM_P2
2022/09/21 00:01:08;;;;;;;7.07;5.13;;;8.00;99.90;;;;;;5043750;28;20041;-79
2022/09/21 00:03:35;;;;;;;8.18;5.03;;;8.00;99.90;;;;;;5059532;28;20056;-79
2022/09/21 00:06:09;;;;;;;7.78;4.90;;;8.00;99.90;;;;;;5023849;28;20044;-79
2022/09/21 00:08:38;;;;;;;9.32;5.40;;;8.10;99.90;;;;;;5055641;28;20056;-79
2022/09/21 00:11:05;;;;;;;8.52;4.32;;;8.10;99.90;;;;;;5041594;28;20515;-79
2022/09/21 00:13:36;;;;;;;7.65;4.50;;;8.00;99.90;;;;;;5042221;28;20045;-79
2022/09/21 00:16:08;;;;;;;7.65;4.20;;;8.00;99.90;;;;;;5043915;28;20040;-79
2022/09/21 00:18:43;;;;;;;6.00;4.72;;;8.00;99.90;;;;;;5021181;28;20053;-79
2022/09/21 00:21:12;;;;;;;6.78;4.03;;;8.00;99.90;;;;;;5017787;28;20083;-79
2022/09/21 00:23:39;;;;;;;5.55;3.55;;;8.00;99.90;;;;;;5038586;28;20111;-79
2022/09/21 00:26:07;;;;;;;7.22;3.42;;;8.00;99.90;;;;;;5021838;28;20127;-79
2022/09/21 00:28:33;;;;;;;9.65;4.82;;;8.00;99.90;;;;;;5043443;28;20138;-80
2022/09/21 00:31:11;;;;;;;7.55;4.20;;;7.90;99.90;;;;;;5054745;28;20049;-79
2022/09/21 00:33:41;;;;;;;5.60;3.42;;;7.90;99.90;;;;;;5041602;28;20040;-79
2022/09/21 00:36:12;;;;;;;6.35;3.90;;;7.80;99.90;;;;;;5041682;28;20506;-79
2022/09/21 00:38:39;;;;;;;13.25;5.40;;;7.70;99.90;;;;;;5056531;28;20040;-79
2022/09/21 00:41:07;;;;;;;5.72;3.47;;;7.70;99.90;;;;;;5039697;28;20136;-79
2022/09/21 00:43:35;;;;;;;8.68;4.28;;;7.60;99.90;;;;;;5033929;28;20508;-79
2022/09/21 00:46:12;;;;;;;17.67;4.30;;;7.60;99.90;;;;;;5054373;28;20515;-80
2022/09/21 00:48:38;;;;;;;6.28;3.10;;;7.60;99.90;;;;;;5039706;28;20089;-79
2022/09/21 00:51:06;;;;;;;8.13;4.20;;;7.60;99.90;;;;;;5026737;28;20073;-79
2022/09/21 00:53:38;;;;;;;6.03;3.42;;;7.60;99.90;;;;;;5027716;28;20091;-79
2022/09/21 00:56:06;;;;;;;7.53;3.90;;;7.60;99.90;;;;;;5039404;28;20052;-79
2022/09/21 00:58:37;;;;;;;9.63;5.65;;;7.60;99.90;;;;;;5053233;28;20538;-79
2022/09/21 01:01:03;;;;;;;13.40;6.75;;;7.50;99.90;;;;;;5037363;28;20040;-79
2022/09/21 01:03:30;;;;;;;72.38;10.70;;;7.50;99.90;;;;;;5055573;28;20049;-79
2022/09/21 01:05:56;;;;;;;7.28;4.60;;;7.40;99.90;;;;;;5041403;28;20128;-80
2022/09/21 01:08:25;;;;;;;8.93;5.80;;;7.40;99.90;;;;;;5057945;28;20106;-80
2022/09/21 01:11:18;;;;;;;7.15;4.32;;;7.40;99.90;;;;;;5043980;28;20479;-80
2022/09/21 01:14:08;;;;;;;8.65;4.40;;;7.40;99.90;;;;;;5054488;28;20128;-79
2022/09/21 01:16:54;;;;;;;;;;;7.40;99.90;;;;;;5048453;28;20044;-79
2022/09/21 01:19:26;;;;;;;6.55;4.15;;;7.40;99.90;;;;;;5042396;28;19928;-80
2022/09/21 01:22:02;;;;;;;6.32;4.47;;;7.30;99.90;;;;;;5047520;28;20526;-80
2022/09/21 01:24:40;;;;;;;6.95;4.45;;;7.30;99.90;;;;;;5042016;28;20045;-79
2022/09/21 01:27:18;;;;;;;6.03;4.30;;;7.30;99.90;;;;;;5040623;28;20513;-81
2022/09/21 01:29:49;;;;;;;6.93;4.90;;;7.30;99.90;;;;;;5060812;28;20071;-80
2022/09/21 01:32:19;;;;;;;5.68;4.15;;;7.30;99.90;;;;;;5043150;28;20058;-79
2022/09/21 01:34:58;;;;;;;;;;;7.20;99.90;;;;;;5054575;28;20055;-79
2022/09/21 01:37:31;;;;;;;9.15;6.57;;;7.20;99.90;;;;;;5059230;28;19921;-80
2022/09/21 01:40:05;;;;;;;7.35;4.47;;;7.10;99.90;;;;;;5045783;28;20094;-80
2022/09/21 01:42:33;;;;;;;6.90;5.05;;;7.10;99.90;;;;;;5046978;28;20499;-79
2022/09/21 01:45:02;;;;;;;7.40;4.78;;;7.10;99.90;;;;;;5056063;28;20559;-80
2022/09/21 01:47:30;;;;;;;9.25;4.65;;;7.10;99.90;;;;;;5052519;28;20049;-79
2022/09/21 01:50:00;;;;;;;9.23;5.20;;;7.10;99.90;;;;;;5044172;28;20492;-79
2022/09/21 01:52:35;;;;;;;;;;;7.10;99.90;;;;;;5045515;28;20052;-80
2022/09/21 01:55:15;;;;;;;6.07;4.47;;;7.10;99.90;;;;;;5044957;28;19963;-80
2022/09/21 01:57:54;;;;;;;6.63;4.33;;;7.10;99.90;;;;;;5036282;28;20135;-80
2022/09/21 02:00:20;;;;;;;6.20;4.30;;;7.10;99.90;;;;;;5039489;28;20036;-80
2022/09/21 02:02:52;;;;;;;4.93;3.70;;;7.10;99.90;;;;;;5060046;28;20037;-80
2022/09/21 02:05:20;;;;;;;5.70;3.42;;;7.10;99.90;;;;;;5042909;28;20044;-80
2022/09/21 02:07:46;;;;;;;9.77;4.32;;;7.10;99.90;;;;;;5048018;28;20083;-79
2022/09/21 02:10:29;;;;;;;6.72;3.80;;;7.00;99.90;;;;;;5044456;28;20045;-79
2022/09/21 02:13:00;;;;;;;5.55;3.40;;;7.00;99.90;;;;;;5043588;28;20123;-80
2022/09/21 02:15:47;;;;;;;5.00;2.83;;;6.90;99.90;;;;;;5053679;28;20052;-73
2022/09/21 02:18:39;;;;;;;7.57;3.50;;;6.90;99.90;;;;;;5038782;28;20663;-72
2022/09/21 02:21:08;;;;;;;7.15;4.03;;;6.90;99.90;;;;;;5058799;28;20715;-73
2022/09/21 02:23:50;;;;;;;6.22;3.65;;;6.90;99.90;;;;;;5041619;28;20071;-80
2022/09/21 02:26:30;;;;;;;5.35;3.13;;;6.90;99.90;;;;;;5031580;28;20044;-80
2022/09/21 02:29:16;;;;;;;5.57;3.47;;;6.90;99.90;;;;;;5044560;28;20044;-80
2022/09/21 02:32:04;;;;;;;5.93;3.00;;;6.90;99.90;;;;;;5057243;28;20088;-80
2022/09/21 02:34:54;;;;;;;6.03;3.70;;;6.90;99.90;;;;;;5041346;28;20049;-80
2022/09/21 02:37:22;;;;;;;6.13;3.20;;;6.80;99.90;;;;;;5045492;28;20068;-80
2022/09/21 02:40:08;;;;;;;7.40;3.30;;;6.80;99.90;;;;;;5044859;28;20036;-80
2022/09/21 02:42:41;;;;;;;5.30;2.45;;;6.80;99.90;;;;;;5041350;28;20048;-80
2022/09/21 02:45:17;;;;;;;4.95;3.00;;;6.70;99.90;;;;;;5043746;28;20071;-80
2022/09/21 02:47:55;;;;;;;6.05;3.33;;;6.70;99.90;;;;;;5046767;28;20048;-81
2022/09/21 02:50:28;;;;;;;5.85;3.10;;;6.70;99.90;;;;;;5039815;28;20063;-80
2022/09/21 02:52:55;;;;;;;6.47;3.30;;;6.70;99.90;;;;;;5042147;28;20056;-80
2022/09/21 02:55:22;;;;;;;6.00;3.80;;;6.70;99.90;;;;;;5029055;28;20380;-79
2022/09/21 02:57:49;;;;;;;4.68;3.40;;;6.70;99.90;;;;;;5042228;28;20087;-80
2022/09/21 03:00:15;;;;;;;4.82;3.30;;;6.70;99.90;;;;;;5058677;28;20079;-80
2022/09/21 03:02:43;;;;;;;11.40;5.50;;;6.70;99.90;;;;;;5061995;28;20051;-80
2022/09/21 03:05:11;;;;;;;12.32;6.40;;;6.60;99.90;;;;;;5040199;28;20377;-80
2022/09/21 03:07:38;;;;;;;10.88;6.25;;;6.60;99.90;;;;;;5044299;28;20040;-72
2022/09/21 03:10:05;;;;;;;8.85;5.47;;;6.50;99.90;;;;;;5027509;28;20044;-80
2022/09/21 03:12:34;;;;;;;6.95;3.30;;;6.50;99.90;;;;;;5040634;28;20438;-80
2022/09/21 03:14:59;;;;;;;5.63;3.22;;;6.40;99.90;;;;;;5060966;28;20061;-73
2022/09/21 03:17:26;;;;;;;6.50;3.78;;;6.40;99.90;;;;;;5031201;28;20106;-81
2022/09/21 03:19:53;;;;;;;10.68;4.18;;;6.40;99.90;;;;;;5028343;28;20041;-80
2022/09/21 03:22:21;;;;;;;10.82;6.00;;;6.30;99.90;;;;;;5060471;28;20053;-80
2022/09/21 03:24:47;;;;;;;6.07;3.42;;;6.30;99.90;;;;;;5027175;28;20048;-80
2022/09/21 03:27:18;;;;;;;4.78;3.05;;;6.30;99.90;;;;;;5060976;28;20036;-81
2022/09/21 03:29:44;;;;;;;3.92;3.05;;;6.30;99.90;;;;;;5044031;28;20056;-81
2022/09/21 03:32:11;;;;;;;3.88;2.55;;;6.30;99.90;;;;;;5057281;28;20045;-80
2022/09/21 03:34:37;;;;;;;5.30;2.65;;;6.20;99.90;;;;;;5040804;28;20056;-81
2022/09/21 03:37:05;;;;;;;5.07;3.22;;;6.30;99.90;;;;;;5044285;28;20036;-72
2022/09/21 03:39:30;;;;;;;5.15;3.70;;;6.30;99.90;;;;;;5057352;28;20064;-72
2022/09/21 03:41:57;;;;;;;5.35;3.45;;;6.30;99.90;;;;;;5043328;28;20570;-73
2022/09/21 03:44:23;;;;;;;4.82;3.13;;;6.30;99.90;;;;;;5041945;28;20041;-80
2022/09/21 03:46:52;;;;;;;5.13;3.88;;;6.30;99.90;;;;;;5027405;28;20097;-81
2022/09/21 03:49:18;;;;;;;7.25;3.95;;;6.30;99.90;;;;;;5041275;28;20048;-81
2022/09/21 03:51:44;;;;;;;5.90;3.05;;;6.30;99.90;;;;;;5040459;28;20045;-80
2022/09/21 03:54:10;;;;;;;4.68;2.70;;;6.20;99.90;;;;;;5062732;28;20045;-81
2022/09/21 03:56:36;;;;;;;4.43;2.20;;;6.30;99.90;;;;;;5056546;28;20522;-72
2022/09/21 03:59:02;;;;;;;7.10;3.00;;;6.20;99.90;;;;;;5059860;28;20777;-72
2022/09/21 04:01:28;;;;;;;6.13;2.92;;;6.20;99.90;;;;;;5056516;28;20057;-73
2022/09/21 04:03:54;;;;;;;4.85;3.20;;;6.20;99.90;;;;;;5016637;28;20048;-72
2022/09/21 04:06:20;;;;;;;7.05;3.38;;;6.20;99.90;;;;;;5034896;28;20403;-72
2022/09/21 04:08:46;;;;;;;6.40;2.85;;;6.20;99.90;;;;;;5025595;28;20119;-72
2022/09/21 04:11:17;;;;;;;6.68;3.05;;;6.20;99.90;;;;;;5058423;28;20036;-72
2022/09/21 04:13:47;;;;;;;5.20;2.70;;;6.30;99.90;;;;;;5041729;28;21469;-72
2022/09/21 04:16:13;;;;;;;9.55;3.47;;;6.20;99.90;;;;;;5062849;28;20090;-80
2022/09/21 04:18:39;;;;;;;7.35;4.28;;;6.20;99.90;;;;;;5042166;28;20470;-81
2022/09/21 04:21:05;;;;;;;6.78;2.95;;;6.10;99.90;;;;;;5012832;28;20572;-80
2022/09/21 04:23:43;;;;;;;3.85;2.25;;;6.00;99.90;;;;;;5043497;28;20056;-81
2022/09/21 04:26:21;;;;;;;6.00;2.70;;;5.90;99.90;;;;;;5060732;28;20499;-80
2022/09/21 04:28:47;;;;;;;5.20;2.63;;;5.90;99.90;;;;;;5039646;28;20083;-81
2022/09/21 04:31:13;;;;;;;5.35;2.65;;;5.80;99.90;;;;;;5025982;28;20056;-81
2022/09/21 04:33:40;;;;;;;7.20;3.22;;;5.90;99.90;;;;;;5028913;28;20480;-80
2022/09/21 04:36:09;;;;;;;5.05;2.55;;;5.80;99.90;;;;;;5026541;28;20071;-72
2022/09/21 04:38:34;;;;;;;5.35;3.03;;;5.80;99.90;;;;;;5046181;28;20507;-81
2022/09/21 04:41:02;;;;;;;4.85;2.72;;;5.80;99.90;;;;;;5060221;28;20036;-80
2022/09/21 04:43:27;;;;;;;5.03;2.60;;;5.70;99.90;;;;;;5025389;28;20566;-81
2022/09/21 04:45:56;;;;;;;8.43;4.35;;;5.70;99.90;;;;;;5044957;28;20041;-80
2022/09/21 04:48:22;;;;;;;3.92;2.67;;;5.70;99.90;;;;;;5018736;28;20036;-80
2022/09/21 04:50:48;;;;;;;12.43;4.65;;;5.70;99.90;;;;;;5032980;28;20040;-80
2022/09/21 04:53:14;;;;;;;7.07;3.30;;;5.70;99.90;;;;;;5061056;28;20094;-80
2022/09/21 04:55:40;;;;;;;5.57;3.05;;;5.60;99.90;;;;;;5045993;28;21170;-80
2022/09/21 04:58:07;;;;;;;6.88;3.42;;;5.60;99.90;;;;;;5060657;28;20760;-80
2022/09/21 05:00:33;;;;;;;8.70;3.70;;;5.60;99.90;;;;;;5022300;28;20045;-80
2022/09/21 05:02:59;;;;;;;5.40;3.40;;;5.60;99.90;;;;;;5031710;28;20498;-80
2022/09/21 05:05:24;;;;;;;5.82;3.70;;;5.70;99.90;;;;;;5059390;28;20044;-80
2022/09/21 05:07:50;;;;;;;5.05;3.50;;;5.70;99.90;;;;;;5045248;28;20128;-80
2022/09/21 05:10:16;;;;;;;6.20;3.60;;;5.70;99.90;;;;;;5063227;28;20053;-80
2022/09/21 05:12:42;;;;;;;7.20;3.90;;;5.70;99.90;;;;;;5045821;28;20055;-80
2022/09/21 05:15:10;;;;;;;7.43;3.60;;;5.70;99.90;;;;;;5045094;28;20057;-80
2022/09/21 05:17:40;;;;;;;6.55;3.38;;;5.70;99.90;;;;;;5060646;28;20095;-80
2022/09/21 05:20:10;;;;;;;5.10;3.33;;;5.80;99.90;;;;;;5029322;28;20059;-80
2022/09/21 05:22:36;;;;;;;5.65;3.60;;;5.70;99.90;;;;;;5031113;28;20049;-80
2022/09/21 05:25:02;;;;;;;7.20;4.05;;;5.70;99.90;;;;;;5040758;28;20036;-80
2022/09/21 05:27:28;;;;;;;10.00;5.88;;;5.70;99.90;;;;;;5025399;28;20048;-80
2022/09/21 05:29:53;;;;;;;6.68;3.85;;;5.70;99.90;;;;;;5065420;28;20037;-80
2022/09/21 05:32:43;;;;;;;5.35;3.78;;;5.70;99.90;;;;;;5029540;28;20097;-80
2022/09/21 05:35:42;;;;;;;6.97;3.42;;;5.60;99.90;;;;;;5031802;28;20087;-80
2022/09/21 05:38:15;;;;;;;4.60;3.40;;;5.70;99.90;;;;;;5036905;28;20067;-80
2022/09/21 05:40:41;;;;;;;8.80;4.03;;;5.70;99.90;;;;;;5064355;28;20060;-80
2022/09/21 05:43:08;;;;;;;6.97;4.43;;;5.70;99.90;;;;;;5042558;28;20055;-80
2022/09/21 05:45:45;;;;;;;8.50;5.55;;;5.80;99.90;;;;;;5054508;28;20110;-80
2022/09/21 05:48:20;;;;;;;11.27;5.95;;;5.80;99.90;;;;;;5057372;28;20498;-80
2022/09/21 05:51:02;;;;;;;6.63;4.05;;;5.90;99.90;;;;;;5034759;28;20137;-71
2022/09/21 05:53:40;;;;;;;7.75;4.80;;;5.90;99.90;;;;;;5035368;28;20408;-72
2022/09/21 05:56:22;;;;;;;8.50;5.80;;;5.90;99.90;;;;;;5040797;28;20112;-71
2022/09/21 05:59:18;;;;;;;8.27;5.75;;;6.00;99.90;;;;;;5055626;28;20106;-80
2022/09/21 06:02:03;;;;;;;8.32;5.15;;;5.90;99.90;;;;;;5054559;28;20048;-80
2022/09/21 06:04:29;;;;;;;6.07;4.15;;;5.90;99.90;;;;;;5058319;28;20045;-72
2022/09/21 06:06:55;;;;;;;7.15;3.95;;;5.80;99.90;;;;;;5021223;28;20036;-71
2022/09/21 06:09:21;;;;;;;7.28;4.65;;;5.90;99.90;;;;;;5038276;28;20347;-80
2022/09/21 06:11:47;;;;;;;10.80;5.90;;;5.90;99.90;;;;;;5040521;28;20037;-80
2022/09/21 06:14:12;;;;;;;6.78;5.50;;;6.00;99.90;;;;;;5051808;28;20563;-80
2022/09/21 06:16:42;;;;;;;9.77;6.45;;;6.10;99.90;;;;;;5026763;28;20045;-80
2022/09/21 06:19:12;;;;;;;7.43;5.07;;;6.20;99.90;;;;;;5039443;28;20554;-80
2022/09/21 06:21:37;;;;;;;9.98;4.80;;;6.20;99.90;;;;;;5051290;28;20087;-71
2022/09/21 06:24:03;;;;;;;7.40;4.72;;;6.20;99.90;;;;;;5024339;28;20503;-71
2022/09/21 06:26:29;;;;;;;7.38;4.55;;;6.20;99.90;;;;;;5042721;28;20491;-72
2022/09/21 06:28:55;;;;;;;7.03;4.47;;;6.10;99.90;;;;;;5011266;28;20093;-71
2022/09/21 06:31:21;;;;;;;7.75;4.70;;;6.20;99.90;;;;;;5038978;28;20400;-72
2022/09/21 06:33:47;;;;;;;13.93;7.68;;;6.40;99.90;;;;;;5037273;28;20044;-80
2022/09/21 06:36:14;;;;;;;12.35;7.40;;;6.30;99.90;;;;;;5008407;28;20037;-80
2022/09/21 06:38:39;;;;;;;8.65;4.85;;;6.40;99.90;;;;;;5046746;28;20051;-80
2022/09/21 06:41:08;;;;;;;8.57;5.13;;;6.40;99.90;;;;;;5045791;28;20041;-80
2022/09/21 06:43:34;;;;;;;8.43;4.75;;;6.50;99.90;;;;;;5014170;28;20073;-80
2022/09/21 06:46:01;;;;;;;8.82;5.93;;;6.50;99.90;;;;;;5040998;28;20032;-80
2022/09/21 06:48:28;;;;;;;7.82;4.30;;;6.60;99.90;;;;;;5040896;28;20098;-80
2022/09/21 06:50:58;;;;;;;7.03;4.00;;;6.60;99.90;;;;;;5060527;28;20574;-80
2022/09/21 06:53:25;;;;;;;8.43;4.97;;;6.70;99.90;;;;;;5044593;28;20545;-80
2022/09/21 06:55:51;;;;;;;9.35;4.93;;;6.70;99.90;;;;;;5023829;28;20115;-80
2022/09/21 06:58:18;;;;;;;7.28;4.80;;;6.80;99.90;;;;;;5043962;28;21023;-80
2022/09/21 07:00:45;;;;;;;7.15;5.13;;;6.90;99.90;;;;;;5046737;28;20040;-81
2022/09/21 07:03:12;;;;;;;11.85;5.75;;;7.00;99.90;;;;;;5054859;28;20052;-80
2022/09/21 07:05:38;;;;;;;11.27;5.68;;;7.20;99.90;;;;;;5025051;28;20527;-80
2022/09/21 07:08:05;;;;;;;8.75;5.05;;;7.40;99.90;;;;;;5036112;28;20040;-81
2022/09/21 07:10:31;;;;;;;8.55;5.18;;;7.60;99.90;;;;;;5059972;28;20070;-80
2022/09/21 07:13:04;;;;;;;9.57;5.22;;;7.80;99.90;;;;;;5053764;28;20100;-81
2022/09/21 07:15:31;;;;;;;8.18;5.15;;;8.10;99.90;;;;;;5040032;28;20075;-81
2022/09/21 07:17:57;;;;;;;8.23;4.97;;;8.30;99.90;;;;;;5059802;28;20123;-81
2022/09/21 07:20:23;;;;;;;10.70;5.00;;;8.60;99.90;;;;;;5061739;28;20041;-81
2022/09/21 07:22:49;;;;;;;5.28;3.80;;;8.80;99.90;;;;;;5042906;28;21090;-81
2022/09/21 07:25:15;;;;;;;8.02;4.47;;;9.00;99.90;;;;;;5023532;28;20049;-80
2022/09/21 07:27:41;;;;;;;7.50;4.57;;;9.20;99.90;;;;;;5028310;28;20056;-80
2022/09/21 07:30:07;;;;;;;7.28;5.43;;;9.40;99.90;;;;;;5032287;28;20547;-80
2022/09/21 07:32:33;;;;;;;7.72;4.63;;;9.70;99.90;;;;;;5035598;28;20049;-80
2022/09/21 07:35:03;;;;;;;6.10;4.40;;;9.90;99.90;;;;;;5053587;28;20037;-81
2022/09/21 07:37:30;;;;;;;6.10;4.03;;;10.10;99.90;;;;;;5053983;28;20549;-80
2022/09/21 07:40:03;;;;;;;7.03;4.07;;;10.30;99.90;;;;;;5034613;28;20072;-80
2022/09/21 07:42:29;;;;;;;8.23;4.60;;;10.50;99.90;;;;;;5021456;28;20041;-80
2022/09/21 07:44:55;;;;;;;6.88;5.03;;;10.70;99.90;;;;;;5017638;28;20522;-80
2022/09/21 07:47:24;;;;;;;8.80;4.70;;;11.00;99.90;;;;;;5027079;28;20051;-80
2022/09/21 07:49:50;;;;;;;6.68;3.85;;;11.30;99.90;;;;;;5061491;28;20040;-80
2022/09/21 07:52:15;;;;;;;7.88;3.47;;;11.60;99.90;;;;;;5042469;28;20060;-80
2022/09/21 07:54:41;;;;;;;8.68;3.25;;;11.90;99.90;;;;;;5041629;28;20407;-79
2022/09/21 07:59:51;;;;;;;10.00;3.13;;;12.40;99.90;;;;;;5056891;28;20056;-80
2022/09/21 08:02:17;;;;;;;6.47;2.97;;;12.70;99.90;;;;;;5042350;28;20783;-80
2022/09/21 08:04:43;;;;;;;7.65;3.05;;;12.90;99.90;;;;;;5038012;28;20037;-80
2022/09/21 08:07:08;;;;;;;6.38;2.90;;;13.10;99.90;;;;;;5041308;28;20044;-79
2022/09/21 08:09:38;;;;;;;7.97;2.72;;;13.30;99.90;;;;;;5027830;28;20132;-80
2022/09/21 08:12:22;;;;;;;6.82;2.25;;;13.60;99.90;;;;;;5024825;28;20470;-80
2022/09/21 08:14:48;;;;;;;7.32;2.78;;;13.80;99.90;;;;;;5025521;28;20483;-80
2022/09/21 08:17:14;;;;;;;6.20;2.60;;;13.90;99.90;;;;;;5056031;28;20071;-79
2022/09/21 08:19:40;;;;;;;7.97;2.40;;;14.10;99.90;;;;;;5033722;28;20499;-80
2022/09/21 08:22:06;;;;;;;11.15;2.83;;;14.30;99.90;;;;;;5035848;28;20037;-79
2022/09/21 08:24:32;;;;;;;6.03;1.77;;;14.50;99.90;;;;;;5038459;28;20048;-80
2022/09/21 08:26:58;;;;;;;8.45;2.10;;;14.70;99.90;;;;;;5054467;28;20737;-80
2022/09/21 08:29:25;;;;;;;10.07;2.13;;;14.80;99.90;;;;;;5059167;28;20531;-80
2022/09/21 08:31:52;;;;;;;10.38;1.88;;;15.00;99.90;;;;;;5054612;28;20033;-80
2022/09/21 08:34:18;;;;;;;8.95;2.10;;;15.10;99.90;;;;;;5025332;28;20045;-79
2022/09/21 08:36:45;;;;;;;9.45;1.60;;;15.20;99.90;;;;;;5057253;28;20153;-79
2022/09/21 08:39:11;;;;;;;8.05;1.63;;;15.40;99.90;;;;;;5020711;28;20127;-79
2022/09/21 08:42:07;;;;;;;8.10;2.00;;;15.50;99.90;;;;;;5058638;28;20052;-80
2022/09/21 08:44:39;;;;;;;9.48;1.95;;;15.60;99.90;;;;;;5053341;28;20052;-80
2022/09/21 08:47:27;;;;;;;9.95;1.92;;;15.70;99.90;;;;;;5059438;28;20497;-80
2022/09/21 08:49:57;;;;;;;7.68;1.88;;;15.80;99.90;;;;;;5058623;28;20048;-80
2022/09/21 08:52:25;;;;;;;8.27;2.03;;;15.90;99.90;;;;;;5038941;28;20318;-79
2022/09/21 08:54:55;;;;;;;6.35;1.88;;;16.00;99.90;;;;;;5037013;28;20043;-80
2022/09/21 08:57:29;;;;;;;5.18;1.35;;;16.10;99.90;;;;;;5050636;28;20049;-80
2022/09/21 08:59:55;;;;;;;7.43;2.08;;;16.20;99.90;;;;;;5038561;28;20114;-80
2022/09/21 09:02:58;;;;;;;10.15;1.83;;;16.20;99.90;;;;;;5050809;28;20044;-80
2022/09/21 09:05:27;;;;;;;6.07;1.38;;;16.40;99.90;;;;;;5052126;28;20407;-80
2022/09/21 09:08:05;;;;;;;6.55;1.52;;;16.50;99.90;;;;;;5035309;28;20037;-80
2022/09/21 09:10:47;;;;;;;5.30;1.35;;;16.50;99.90;;;;;;5054253;28;20463;-80
2022/09/21 09:13:49;;;;;;;7.28;1.20;;;16.50;99.90;;;;;;5056810;28;20369;-80
2022/09/21 09:16:26;;;;;;;7.78;1.42;;;16.60;99.90;;;;;;5031712;28;20088;-80
2022/09/21 09:18:56;;;;;;;5.03;1.13;;;16.60;99.90;;;;;;5053950;28;20623;-80
2022/09/21 09:21:37;;;;;;;6.65;1.25;;;16.70;99.90;;;;;;5039727;28;20867;-80
2022/09/21 09:24:11;;;;;;;4.75;1.23;;;16.50;99.90;;;;;;5041134;28;20048;-80
2022/09/21 09:26:59;;;;;;;7.70;1.42;;;16.30;99.90;;;;;;5047525;28;20741;-80
2022/09/21 09:29:49;;;;;;;7.53;1.20;;;16.20;99.90;;;;;;5053766;28;20495;-80
2022/09/21 09:32:16;;;;;;;;;;;16.40;99.90;;;;;;5054130;28;20045;-80
2022/09/21 09:34:52;;;;;;;7.55;1.55;;;16.60;99.90;;;;;;5052695;28;19920;-80
2022/09/21 09:37:23;;;;;;;5.10;1.08;;;16.70;99.90;;;;;;5057136;28;20127;-80
2022/09/21 09:39:55;;;;;;;7.95;1.38;;;16.80;99.90;;;;;;5056788;28;20053;-79
2022/09/21 09:42:48;;;;;;;7.45;1.27;;;17.00;99.90;;;;;;5046625;28;20044;-79
2022/09/21 09:54:53;;;;;;;5.78;1.20;;;17.40;99.90;;;;;;4811447;29;20050;-92
2022/09/21 09:57:53;;;;;;;3.45;0.80;;;17.40;99.90;;;;;;4815624;29;20042;-92
2022/09/21 10:00:20;;;;;;;4.07;0.68;;;17.50;99.90;;;;;;4821653;29;20070;-93
2022/09/21 10:02:50;;;;;;;5.25;0.90;;;17.60;99.90;;;;;;4800475;29;20046;-92
2022/09/21 10:05:37;;;;;;;3.60;0.77;;;17.70;99.90;;;;;;4808738;29;20751;-94
2022/09/21 10:08:42;;;;;;;5.63;1.10;;;17.70;99.90;;;;;;4823295;29;20129;-94
2022/09/21 10:11:36;;;;;;;5.30;0.90;;;17.50;99.90;;;;;;4808054;29;20482;-94
2022/09/21 10:14:23;;;;;;;4.75;0.70;;;17.20;99.90;;;;;;4804565;29;20054;-94
2022/09/21 10:17:03;;;;;;;6.30;1.35;;;16.90;99.90;;;;;;4825298;29;20077;-94
2022/09/21 10:19:30;;;;;;;6.07;1.00;;;16.60;99.90;;;;;;4815812;29;20050;-94
2022/09/21 10:22:01;;;;;;;5.13;1.08;;;16.40;99.90;;;;;;4823643;29;20042;-96
2022/09/21 10:24:37;;;;;;;4.18;0.73;;;16.20;99.90;;;;;;4821269;29;20077;-94
2022/09/21 10:27:12;;;;;;;3.97;0.77;;;16.00;99.90;;;;;;4830110;29;20049;-95
2022/09/21 10:33:01;;;;;;;6.63;1.02;;;15.60;99.90;;;;;;4824567;29;20052;-96
2022/09/21 10:35:27;;;;;;;4.13;0.80;;;15.50;99.90;;;;;;4801076;29;20062;-96
2022/09/21 10:38:18;;;;;;;5.55;0.75;;;15.40;99.90;;;;;;4819508;29;20046;-95
2022/09/21 10:40:45;;;;;;;4.50;0.70;;;15.30;99.90;;;;;;4811461;29;20103;-95
2022/09/21 10:43:50;;;;;;;5.60;1.30;;;15.20;99.90;;;;;;4808575;29;20145;-93
2022/09/21 10:49:49;;;;;;;;;;;15.40;99.90;;;;;;4842388;29;20064;-94
2022/09/21 10:52:18;;;;;;;7.10;0.98;;;15.70;99.90;;;;;;4810141;29;20359;-93
2022/09/21 10:54:45;;;;;;;4.68;1.10;;;15.90;99.90;;;;;;4821576;29;20498;-93
2022/09/21 10:57:17;;;;;;;6.93;1.45;;;16.00;99.90;;;;;;4805675;29;20068;-94
2022/09/21 10:59:43;;;;;;;5.80;0.90;;;16.00;99.90;;;;;;4835805;29;20053;-94
2022/09/21 11:02:30;;;;;;;3.90;0.90;;;16.00;99.90;;;;;;4800241;29;20505;-94
2022/09/21 11:05:04;;;;;;;5.75;0.98;;;16.20;99.90;;;;;;4807254;29;20058;-94
2022/09/21 11:08:12;;;;;;;5.70;0.90;;;16.40;99.90;;;;;;4833620;29;20056;-93
2022/09/21 11:10:47;;;;;;;3.85;0.80;;;16.60;99.90;;;;;;4805004;29;20057;-93
2022/09/21 11:13:44;;;;;;;6.20;0.80;;;16.90;99.90;;;;;;4799185;29;20182;-93
2022/09/21 11:16:29;;;;;;;6.10;1.05;;;17.10;99.90;;;;;;4826327;29;20108;-94
2022/09/21 11:19:21;;;;;;;4.45;0.98;;;17.20;99.90;;;;;;4827932;29;20058;-94
2022/09/21 11:22:12;;;;;;;4.95;0.80;;;17.40;99.90;;;;;;4822037;29;20054;-94
2022/09/21 11:24:56;;;;;;;4.45;0.80;;;17.50;99.10;;;;;;4832495;29;20050;-94
2022/09/21 11:27:31;;;;;;;4.47;0.88;;;17.60;98.70;;;;;;4837602;29;20111;-93
2022/09/21 11:30:11;;;;;;;4.93;0.90;;;17.70;98.70;;;;;;4803532;29;20103;-94
2022/09/21 11:39:41;;;;;;;1.90;0.57;;;18.10;95.70;;;;;;4834393;29;20707;-94
2022/09/21 11:42:44;;;;;;;3.88;0.70;;;18.20;95.50;;;;;;4812342;29;20046;-94
2022/09/21 11:45:31;;;;;;;5.18;0.80;;;18.20;95.10;;;;;;4834320;29;20046;-93
2022/09/21 11:48:06;;;;;;;4.75;0.90;;;18.30;95.30;;;;;;4816433;29;20062;-94
2022/09/21 11:50:59;;;;;;;4.50;0.95;;;18.40;94.80;;;;;;4828450;29;20133;-93
2022/09/21 11:53:53;;;;;;;6.13;0.95;;;18.40;92.40;;;;;;4817421;29;20050;-94
2022/09/21 11:56:43;;;;;;;3.08;0.80;;;18.50;92.80;;;;;;4785358;29;20300;-94
2022/09/21 11:59:20;;;;;;;3.90;0.77;;;18.50;93.70;;;;;;4795941;29;20094;-94
2022/09/21 12:02:12;;;;;;;4.07;0.70;;;18.50;91.50;;;;;;4825357;29;20050;-94
2022/09/21 12:05:06;;;;;;;4.18;0.85;;;18.50;86.70;;;;;;4792041;29;20065;-94
2022/09/21 12:07:47;;;;;;;2.85;0.52;;;18.50;90.30;;;;;;4815208;29;20080;-94
2022/09/21 12:11:03;;;;;;;3.95;1.08;;;18.50;90.90;;;;;;4806800;29;20125;-96
2022/09/21 12:14:06;;;;;;;5.20;0.80;;;18.50;89.40;;;;;;4789418;29;20046;-95
2022/09/21 12:16:54;;;;;;;3.22;0.63;;;18.40;91.30;;;;;;4810116;29;20498;-95
2022/09/21 12:19:47;;;;;;;4.00;0.70;;;18.50;91.50;;;;;;4809713;29;20046;-96
2022/09/21 12:22:41;;;;;;;3.95;0.68;;;18.70;92.30;;;;;;4796799;29;20509;-95
2022/09/21 12:25:31;;;;;;;3.25;0.80;;;18.80;91.50;;;;;;4811497;29;20046;-95
2022/09/21 12:28:00;;;;;;;;;;;19.00;91.40;;;;;;4791108;29;20050;-94
2022/09/21 12:30:30;;;;;;;6.13;0.90;;;19.00;92.10;;;;;;4815844;29;19925;-95
2022/09/21 12:33:11;;;;;;;3.08;0.68;;;19.10;91.40;;;;;;4797960;29;20129;-95
2022/09/21 12:35:45;;;;;;;5.38;0.80;;;19.20;91.30;;;;;;4805011;29;20058;-95
2022/09/21 12:38:20;;;;;;;2.72;0.68;;;19.30;89.30;;;;;;4798548;29;20054;-94
2022/09/21 12:40:52;;;;;;;3.40;0.65;;;19.30;90.30;;;;;;4796170;29;20058;-94
2022/09/21 12:43:55;;;;;;;3.85;0.52;;;19.30;88.50;;;;;;4808852;29;20042;-94
2022/09/21 12:46:37;;;;;;;4.15;0.82;;;19.10;83.10;;;;;;4797848;29;20132;-95
2022/09/21 12:49:19;;;;;;;5.00;0.75;;;19.10;82.70;;;;;;4807640;29;20050;-95
2022/09/21 12:52:05;;;;;;;4.05;0.65;;;19.00;83.60;;;;;;4816255;29;20046;-94
2022/09/21 12:54:41;;;;;;;3.53;0.52;;;19.00;85.10;;;;;;4809618;29;20082;-95
2022/09/21 12:57:30;;;;;;;3.95;0.98;;;19.00;81.40;;;;;;4794541;29;20401;-94
2022/09/21 13:00:12;;;;;;;5.63;0.82;;;18.90;82.30;;;;;;4810928;29;20578;-95
2022/09/21 13:02:57;;;;;;;4.75;0.75;;;18.80;86.80;;;;;;4809662;29;20054;-94
2022/09/21 13:08:50;;;;;;;5.60;1.02;;;18.90;86.30;;;;;;4809492;29;20111;-94
2022/09/21 13:11:48;;;;;;;4.80;1.00;;;18.80;90.00;;;;;;4792063;29;20073;-95
2022/09/21 13:14:36;;;;;;;3.17;0.75;;;18.90;88.90;;;;;;4797175;29;20049;-95
2022/09/21 13:17:35;;;;;;;3.60;0.77;;;18.90;87.10;;;;;;4832797;29;20046;-94
2022/09/21 13:20:42;;;;;;;5.80;0.90;;;18.80;88.90;;;;;;4811040;29;20046;-95
2022/09/21 13:23:30;;;;;;;6.78;1.10;;;18.80;90.10;;;;;;4812023;29;20141;-94
2022/09/21 13:26:03;;;;;;;4.85;0.80;;;18.90;84.30;;;;;;4805160;29;20075;-94
2022/09/21 13:29:06;;;;;;;3.42;0.90;;;18.80;85.90;;;;;;4814062;29;20057;-95
2022/09/21 13:49:32;;;;;;;4.15;0.68;;;18.80;91.40;;;;;;4812887;29;20540;-94
2022/09/21 13:52:02;;;;;;;4.47;1.05;;;18.70;92.00;;;;;;4806600;29;20074;-95
2022/09/21 13:57:54;;;;;;;6.07;0.90;;;18.30;89.50;;;;;;4799585;29;20315;-95
2022/09/21 14:04:01;;;;;;;5.43;0.98;;;18.20;88.20;;;;;;4818803;29;20050;-94
2022/09/21 14:06:34;;;;;;;5.32;1.02;;;18.20;90.50;;;;;;4804241;29;20476;-95
2022/09/21 14:09:25;;;;;;;5.07;1.05;;;18.20;85.90;;;;;;4793878;29;20042;-95
2022/09/21 14:15:41;;;;;;;3.53;0.82;;;18.20;89.70;;;;;;4777910;29;20188;-95
2022/09/21 14:18:19;;;;;;;5.32;0.90;;;18.20;92.50;;;;;;4814242;29;20054;-94
2022/09/21 14:21:10;;;;;;;3.70;0.80;;;18.30;90.80;;;;;;4787640;29;20055;-95
2022/09/21 14:24:07;;;;;;;3.38;0.98;;;18.40;90.30;;;;;;4817117;29;20164;-95
2022/09/21 14:27:24;;;;;;;2.88;0.80;;;18.40;89.70;;;;;;4797145;29;20081;-94